EPGDEPKK

Guest
Details From EPGD - Lech Walesa
To EPKK - Balice
Flight Number -
Tags Generated
Created
Modified
Stats Distance 263 nm / 488 km
Max Altitude 0 ft / 0 m
Waypoints 3
Social Downloads 6
Likes 0
Share VATSIM

Download

Looking for another format? Having issues loading an existing format? Contact us
Advertisement - Login to hide

Notes

Generated

Route

EPGD BALOS EPKK

ID Type Via Altitude Latitude Longitude Leg Dist Tot Dist Heading (true) Name
O EPGD APT - 0 ft / 0 m 54.38107˚ 18.45205˚ - 0 nm - -
BALOS FIX - 0 ft / 0 m 50.27556˚ 19.65833˚ 250 nm 250 nm 169° / 170° -
O EPKK APT - 0 ft / 0 m 50.07540˚ 19.76809˚ 12 nm 263 nm 161° / 161° -

Altitude Profile

Advertisement - Login to hide

Weather


0- 5 10 15 20 25 30 35+ Temperature / ° C

Clouds and Precipitation
Forecast for 2017-12-13 18:00 UTC. Updated 2 hours ago

Ground ~20,000 ft ~40,000 ft Winds

EPGD

Details ICAO EPGD (GDN)
Name LECH WALESA
Region Poland
Timezone Europe/Warsaw (UTC+1.0)
Stats Elevation 489 ft / 149 m (AMSL)
Location 54.376167° 18.471884°
Runways 1
Magnetic Variation 5.450° E

METAR

EPGD 131830Z 18014KT CAVOK 00/M02 Q1004

Decode

TAF

TAF TAF EPGD 131730Z 1318/1418 18014KT 9999 SCT020 PROB40 TEMPO 1318/1410 18018G28KT BECMG 1404/1406 4000 SNRA BR BKN005 PROB40 1406/1411 1200 SN BR BKN002 BECMG 1411/1413 24012KT 9999 NSW BKN012 PROB40 TEMPO 1411/1412 24015G25KT

Decode

Departure Runways

ID Width Length Bearing (true) Bearing (mag) Surface Threshold Offset Overrun Length
11 148 ft / 45 m 9,158 ft / 2,791 m 112.96° 107.51° Asphalt 0 ft / 0 m 0 ft / 0 m
29 148 ft / 45 m 9,158 ft / 2,791 m 293.00° 287.55° Asphalt 0 ft / 0 m 0 ft / 0 m

EPKK

Details ICAO EPKK (KRK)
Name BALICE
Region Poland
Timezone Europe/Warsaw (UTC+1.0)
Stats Elevation 791 ft / 241 m (AMSL)
Location 50.077821° 19.785503°
Runways 1
Magnetic Variation 5.202° E

METAR

EPKK 131830Z VRB01KT 8000 NSC M02/M04 Q1011

Decode

TAF

TAF EPKK 131730Z 1318/1418 VRB02KT CAVOK PROB30 TEMPO 1321/1403 3000 BR BECMG 1404/1407 24012KT PROB30 TEMPO 1409/1415 25015G30KT BKN020CB

Decode

Destination Runways

ID Width Length Bearing (true) Bearing (mag) Surface Threshold Offset Overrun Length
07 197 ft / 60 m 8,343 ft / 2,543 m 77.75° 72.55° Concrete 0 ft / 0 m 0 ft / 0 m
25 197 ft / 60 m 8,343 ft / 2,543 m 257.77° 252.57° Concrete 784 ft / 239 m 0 ft / 0 m

Approach Navaids

Runway Type Ident Frequency Range Bearing (true) Bearing (mag) Slope Elevation
25 Localiser KRW 110.30 MHz 18 nm / 33 km 257.73° 252.53° - 791 ft / 241 m (AMSL)
25 Glidescope KRW 110.30 MHz 10 nm / 19 km 257.76° 252.56° 3.00° 791 ft / 241 m (AMSL)
25 DME KRW 110.30 MHz 18 nm / 33 km - - - 827 ft / 252 m (AMSL)

Popular Alternatives